sensor_id;sensor_type;location;lat;lon;timestamp;pressure;altitude;pressure_sealevel;temperature;humidity
57801;BME280;43627;42.728;23.256;2023-01-25T00:02:11;96101.38;;;0.08;100.00
57801;BME280;43627;42.728;23.256;2023-01-25T00:04:38;96113.34;;;0.14;100.00
57801;BME280;43627;42.728;23.256;2023-01-25T00:07:05;96103.75;;;0.13;100.00
57801;BME280;43627;42.728;23.256;2023-01-25T00:09:31;96095.91;;;-0.03;100.00
57801;BME280;43627;42.728;23.256;2023-01-25T00:11:58;96103.63;;;0.02;100.00
57801;BME280;43627;42.728;23.256;2023-01-25T00:14:24;96106.63;;;-0.03;100.00
57801;BME280;43627;42.728;23.256;2023-01-25T00:16:51;96112.81;;;0.01;100.00
57801;BME280;43627;42.728;23.256;2023-01-25T00:19:18;96102.13;;;0.05;100.00
57801;BME280;43627;42.728;23.256;2023-01-25T00:21:45;96101.31;;;0.01;100.00
57801;BME280;43627;42.728;23.256;2023-01-25T00:24:12;96102.03;;;-0.03;100.00
57801;BME280;43627;42.728;23.256;2023-01-25T00:26:41;96090.03;;;-0.12;100.00
57801;BME280;43627;42.728;23.256;2023-01-25T00:29:12;96083.88;;;-0.16;100.00
57801;BME280;43627;42.728;23.256;2023-01-25T00:31:40;96104.72;;;-0.03;100.00
57801;BME280;43627;42.728;23.256;2023-01-25T00:36:56;96107.78;;;-0.01;100.00
57801;BME280;43627;42.728;23.256;2023-01-25T00:39:24;96107.84;;;0.03;100.00
57801;BME280;43627;42.728;23.256;2023-01-25T00:41:52;96104.69;;;-0.06;100.00
57801;BME280;43627;42.728;23.256;2023-01-25T00:44:19;96112.75;;;-0.03;100.00
57801;BME280;43627;42.728;23.256;2023-01-25T00:46:46;96111.47;;;-0.16;100.00
57801;BME280;43627;42.728;23.256;2023-01-25T00:49:27;96112.34;;;-0.05;100.00
57801;BME280;43627;42.728;23.256;2023-01-25T00:51:53;96108.44;;;-0.11;100.00
57801;BME280;43627;42.728;23.256;2023-01-25T00:54:24;96103.84;;;-0.10;100.00
57801;BME280;43627;42.728;23.256;2023-01-25T00:56:51;96095.28;;;-0.23;100.00
57801;BME280;43627;42.728;23.256;2023-01-25T00:59:19;96109.66;;;-0.08;100.00
57801;BME280;43627;42.728;23.256;2023-01-25T01:01:46;96096.13;;;-0.19;100.00
57801;BME280;43627;42.728;23.256;2023-01-25T01:04:13;96111.13;;;-0.11;100.00
57801;BME280;43627;42.728;23.256;2023-01-25T01:06:41;96094.09;;;-0.25;100.00
57801;BME280;43627;42.728;23.256;2023-01-25T01:09:11;96101.75;;;-0.27;100.00
57801;BME280;43627;42.728;23.256;2023-01-25T01:11:39;96098.28;;;-0.28;100.00
57801;BME280;43627;42.728;23.256;2023-01-25T01:14:06;96107.16;;;-0.20;100.00
57801;BME280;43627;42.728;23.256;2023-01-25T01:16:33;96101.09;;;-0.17;100.00
57801;BME280;43627;42.728;23.256;2023-01-25T01:19:00;96108.88;;;-0.09;100.00
57801;BME280;43627;42.728;23.256;2023-01-25T01:21:27;96103.22;;;0.00;100.00
57801;BME280;43627;42.728;23.256;2023-01-25T01:23:54;96095.53;;;-0.02;100.00
57801;BME280;43627;42.728;23.256;2023-01-25T01:26:22;96096.25;;;-0.08;100.00
57801;BME280;43627;42.728;23.256;2023-01-25T01:28:49;96091.59;;;-0.11;100.00
57801;BME280;43627;42.728;23.256;2023-01-25T01:31:18;96089.25;;;-0.16;100.00
57801;BME280;43627;42.728;23.256;2023-01-25T01:33:53;96086.00;;;-0.29;100.00
57801;BME280;43627;42.728;23.256;2023-01-25T01:36:22;96077.56;;;-0.31;100.00
57801;BME280;43627;42.728;23.256;2023-01-25T01:38:49;96087.25;;;-0.23;100.00
57801;BME280;43627;42.728;23.256;2023-01-25T01:41:16;96085.69;;;-0.24;100.00
57801;BME280;43627;42.728;23.256;2023-01-25T01:43:43;96077.63;;;-0.27;100.00
57801;BME280;43627;42.728;23.256;2023-01-25T01:46:34;96087.59;;;-0.24;100.00
57801;BME280;43627;42.728;23.256;2023-01-25T01:49:18;96056.72;;;-0.45;100.00
57801;BME280;43627;42.728;23.256;2023-01-25T01:51:49;96090.78;;;-0.45;100.00
57801;BME280;43627;42.728;23.256;2023-01-25T01:54:22;96080.50;;;-0.40;100.00
57801;BME280;43627;42.728;23.256;2023-01-25T01:56:56;96080.19;;;-0.35;100.00
57801;BME280;43627;42.728;23.256;2023-01-25T01:59:31;96074.47;;;-0.33;100.00
57801;BME280;43627;42.728;23.256;2023-01-25T02:01:59;96075.13;;;-0.43;100.00
57801;BME280;43627;42.728;23.256;2023-01-25T02:04:26;96091.06;;;-0.24;100.00
57801;BME280;43627;42.728;23.256;2023-01-25T02:06:59;96084.16;;;-0.25;100.00
57801;BME280;43627;42.728;23.256;2023-01-25T02:09:28;96089.75;;;-0.37;100.00
57801;BME280;43627;42.728;23.256;2023-01-25T02:11:58;96072.56;;;-0.33;100.00
57801;BME280;43627;42.728;23.256;2023-01-25T02:14:27;96078.41;;;-0.27;100.00
57801;BME280;43627;42.728;23.256;2023-01-25T02:16:55;96084.53;;;-0.26;100.00
57801;BME280;43627;42.728;23.256;2023-01-25T02:19:58;96078.31;;;-0.31;100.00
57801;BME280;43627;42.728;23.256;2023-01-25T02:22:39;96088.66;;;-0.33;100.00
57801;BME280;43627;42.728;23.256;2023-01-25T02:25:10;96089.38;;;-0.36;100.00
57801;BME280;43627;42.728;23.256;2023-01-25T02:27:45;96074.88;;;-0.31;100.00
57801;BME280;43627;42.728;23.256;2023-01-25T02:30:14;96085.56;;;-0.35;100.00
57801;BME280;43627;42.728;23.256;2023-01-25T02:32:40;96072.59;;;-0.29;100.00
57801;BME280;43627;42.728;23.256;2023-01-25T02:35:09;96084.81;;;-0.32;100.00
57801;BME280;43627;42.728;23.256;2023-01-25T02:37:45;96058.56;;;-0.49;100.00
57801;BME280;43627;42.728;23.256;2023-01-25T02:40:11;96075.66;;;-0.31;100.00
57801;BME280;43627;42.728;23.256;2023-01-25T02:42:41;96069.53;;;-0.31;100.00
57801;BME280;43627;42.728;23.256;2023-01-25T02:45:13;96062.25;;;-0.31;100.00
57801;BME280;43627;42.728;23.256;2023-01-25T02:47:40;96056.50;;;-0.33;100.00
57801;BME280;43627;42.728;23.256;2023-01-25T02:50:07;96053.31;;;-0.42;100.00
57801;BME280;43627;42.728;23.256;2023-01-25T02:52:34;96065.75;;;-0.26;100.00
57801;BME280;43627;42.728;23.256;2023-01-25T02:55:01;96071.44;;;-0.32;100.00
57801;BME280;43627;42.728;23.256;2023-01-25T02:57:27;96067.69;;;-0.27;100.00
57801;BME280;43627;42.728;23.256;2023-01-25T02:59:54;96071.06;;;-0.30;100.00
57801;BME280;43627;42.728;23.256;2023-01-25T03:02:20;96072.28;;;-0.24;100.00
57801;BME280;43627;42.728;23.256;2023-01-25T03:04:47;96062.03;;;-0.18;100.00
57801;BME280;43627;42.728;23.256;2023-01-25T03:07:14;96067.59;;;-0.31;100.00
57801;BME280;43627;42.728;23.256;2023-01-25T03:09:41;96073.94;;;-0.16;100.00
57801;BME280;43627;42.728;23.256;2023-01-25T03:12:07;96074.38;;;-0.40;100.00
57801;BME280;43627;42.728;23.256;2023-01-25T03:14:34;96073.84;;;-0.23;100.00
57801;BME280;43627;42.728;23.256;2023-01-25T03:17:00;96071.84;;;-0.30;100.00
57801;BME280;43627;42.728;23.256;2023-01-25T03:19:27;96073.97;;;-0.12;100.00
57801;BME280;43627;42.728;23.256;2023-01-25T03:21:54;96076.59;;;-0.16;100.00
57801;BME280;43627;42.728;23.256;2023-01-25T03:24:20;96072.69;;;-0.22;100.00
57801;BME280;43627;42.728;23.256;2023-01-25T03:26:47;96045.19;;;-0.49;100.00
57801;BME280;43627;42.728;23.256;2023-01-25T03:29:32;96054.97;;;-0.30;100.00
57801;BME280;43627;42.728;23.256;2023-01-25T03:31:59;96063.47;;;-0.24;100.00
57801;BME280;43627;42.728;23.256;2023-01-25T03:34:26;96073.09;;;-0.20;100.00
57801;BME280;43627;42.728;23.256;2023-01-25T03:36:52;96063.94;;;-0.19;100.00
57801;BME280;43627;42.728;23.256;2023-01-25T03:39:19;96074.16;;;-0.28;100.00
57801;BME280;43627;42.728;23.256;2023-01-25T03:41:46;96078.72;;;-0.29;100.00
57801;BME280;43627;42.728;23.256;2023-01-25T03:44:12;96070.00;;;-0.22;100.00
57801;BME280;43627;42.728;23.256;2023-01-25T03:46:40;96033.28;;;-0.51;100.00
57801;BME280;43627;42.728;23.256;2023-01-25T03:49:08;96069.13;;;-0.33;100.00
57801;BME280;43627;42.728;23.256;2023-01-25T03:51:35;96066.75;;;-0.38;100.00
57801;BME280;43627;42.728;23.256;2023-01-25T03:54:02;96052.00;;;-0.55;100.00
57801;BME280;43627;42.728;23.256;2023-01-25T03:56:28;96057.09;;;-0.46;100.00
57801;BME280;43627;42.728;23.256;2023-01-25T03:58:55;96066.59;;;-0.49;100.00
57801;BME280;43627;42.728;23.256;2023-01-25T04:01:21;96064.75;;;-0.45;100.00
57801;BME280;43627;42.728;23.256;2023-01-25T04:03:48;96028.66;;;-0.54;100.00
57801;BME280;43627;42.728;23.256;2023-01-25T04:06:15;96056.13;;;-0.31;100.00
57801;BME280;43627;42.728;23.256;2023-01-25T04:08:41;96043.28;;;-0.48;100.00
57801;BME280;43627;42.728;23.256;2023-01-25T04:11:09;96053.03;;;-0.33;100.00
57801;BME280;43627;42.728;23.256;2023-01-25T04:13:36;96035.03;;;-0.36;100.00
57801;BME280;43627;42.728;23.256;2023-01-25T04:16:05;96036.97;;;-0.33;100.00
57801;BME280;43627;42.728;23.256;2023-01-25T04:18:32;96036.81;;;-0.47;100.00
57801;BME280;43627;42.728;23.256;2023-01-25T04:20:59;96062.66;;;-0.29;100.00
57801;BME280;43627;42.728;23.256;2023-01-25T04:23:26;96044.25;;;-0.30;100.00
57801;BME280;43627;42.728;23.256;2023-01-25T04:25:54;96046.72;;;-0.18;100.00
57801;BME280;43627;42.728;23.256;2023-01-25T04:28:22;96053.63;;;-0.17;100.00
57801;BME280;43627;42.728;23.256;2023-01-25T04:30:49;96042.00;;;-0.28;100.00
57801;BME280;43627;42.728;23.256;2023-01-25T04:33:16;96060.47;;;-0.19;100.00
57801;BME280;43627;42.728;23.256;2023-01-25T04:35:43;96045.13;;;-0.22;100.00
57801;BME280;43627;42.728;23.256;2023-01-25T04:38:10;96057.94;;;-0.09;100.00
57801;BME280;43627;42.728;23.256;2023-01-25T04:40:38;96064.00;;;-0.12;100.00
57801;BME280;43627;42.728;23.256;2023-01-25T04:43:05;96054.13;;;-0.08;100.00
57801;BME280;43627;42.728;23.256;2023-01-25T04:45:32;96060.06;;;-0.21;100.00
57801;BME280;43627;42.728;23.256;2023-01-25T04:48:03;96048.44;;;-0.33;100.00
57801;BME280;43627;42.728;23.256;2023-01-25T04:50:30;96071.63;;;-0.17;100.00
57801;BME280;43627;42.728;23.256;2023-01-25T04:52:57;96075.47;;;-0.15;100.00
57801;BME280;43627;42.728;23.256;2023-01-25T04:55:24;96056.88;;;-0.31;100.00
57801;BME280;43627;42.728;23.256;2023-01-25T04:57:50;96061.53;;;-0.27;100.00
57801;BME280;43627;42.728;23.256;2023-01-25T05:00:17;96068.16;;;-0.18;100.00
57801;BME280;43627;42.728;23.256;2023-01-25T05:02:44;96064.25;;;-0.24;100.00
57801;BME280;43627;42.728;23.256;2023-01-25T05:05:11;96068.06;;;-0.25;100.00
57801;BME280;43627;42.728;23.256;2023-01-25T05:07:38;96042.59;;;-0.42;100.00
57801;BME280;43627;42.728;23.256;2023-01-25T05:10:06;96063.53;;;-0.21;100.00
57801;BME280;43627;42.728;23.256;2023-01-25T05:12:33;96063.53;;;-0.21;100.00
57801;BME280;43627;42.728;23.256;2023-01-25T05:14:59;96062.06;;;-0.15;100.00
57801;BME280;43627;42.728;23.256;2023-01-25T05:17:26;96060.63;;;-0.09;100.00
57801;BME280;43627;42.728;23.256;2023-01-25T05:19:52;96061.72;;;-0.10;100.00
57801;BME280;43627;42.728;23.256;2023-01-25T05:22:19;96047.03;;;-0.23;100.00
57801;BME280;43627;42.728;23.256;2023-01-25T05:24:47;96050.13;;;-0.21;100.00
57801;BME280;43627;42.728;23.256;2023-01-25T05:27:15;96054.03;;;-0.15;100.00
57801;BME280;43627;42.728;23.256;2023-01-25T05:29:44;96052.41;;;-0.23;100.00
57801;BME280;43627;42.728;23.256;2023-01-25T05:32:16;96048.22;;;-0.20;100.00
57801;BME280;43627;42.728;23.256;2023-01-25T05:34:43;96059.38;;;-0.15;100.00
57801;BME280;43627;42.728;23.256;2023-01-25T05:37:13;96058.13;;;-0.24;100.00
57801;BME280;43627;42.728;23.256;2023-01-25T05:39:40;96057.00;;;-0.20;100.00
57801;BME280;43627;42.728;23.256;2023-01-25T05:42:13;96060.94;;;-0.14;100.00
57801;BME280;43627;42.728;23.256;2023-01-25T05:44:39;96028.91;;;-0.33;100.00
57801;BME280;43627;42.728;23.256;2023-01-25T05:47:11;96044.34;;;-0.23;100.00
57801;BME280;43627;42.728;23.256;2023-01-25T05:49:38;96062.88;;;-0.11;100.00
57801;BME280;43627;42.728;23.256;2023-01-25T05:52:04;96050.56;;;-0.15;100.00
57801;BME280;43627;42.728;23.256;2023-01-25T05:54:31;96058.97;;;-0.17;100.00
57801;BME280;43627;42.728;23.256;2023-01-25T05:56:58;96059.56;;;-0.31;100.00
57801;BME280;43627;42.728;23.256;2023-01-25T05:59:25;96069.59;;;-0.27;100.00
57801;BME280;43627;42.728;23.256;2023-01-25T06:01:52;96070.00;;;-0.22;100.00
57801;BME280;43627;42.728;23.256;2023-01-25T06:04:18;96072.59;;;-0.29;100.00
57801;BME280;43627;42.728;23.256;2023-01-25T06:06:45;96043.00;;;-0.40;100.00
57801;BME280;43627;42.728;23.256;2023-01-25T06:09:12;96066.94;;;-0.24;100.00
57801;BME280;43627;42.728;23.256;2023-01-25T06:11:42;96064.56;;;-0.29;100.00
57801;BME280;43627;42.728;23.256;2023-01-25T06:14:10;96053.28;;;-0.45;100.00
57801;BME280;43627;42.728;23.256;2023-01-25T06:16:37;96060.53;;;-0.46;100.00
57801;BME280;43627;42.728;23.256;2023-01-25T06:19:05;96079.09;;;-0.30;100.00
57801;BME280;43627;42.728;23.256;2023-01-25T06:21:33;96079.53;;;-0.28;100.00
57801;BME280;43627;42.728;23.256;2023-01-25T06:24:05;96059.00;;;-0.47;100.00
57801;BME280;43627;42.728;23.256;2023-01-25T06:26:32;96080.94;;;-0.38;100.00
57801;BME280;43627;42.728;23.256;2023-01-25T06:28:59;96079.59;;;-0.21;100.00
57801;BME280;43627;42.728;23.256;2023-01-25T06:31:25;96076.16;;;-0.21;100.00
57801;BME280;43627;42.728;23.256;2023-01-25T06:33:52;96067.34;;;-0.22;100.00
57801;BME280;43627;42.728;23.256;2023-01-25T06:36:20;96060.13;;;-0.18;100.00
57801;BME280;43627;42.728;23.256;2023-01-25T06:38:48;96063.25;;;-0.12;100.00
57801;BME280;43627;42.728;23.256;2023-01-25T06:41:16;96064.25;;;-0.24;100.00
57801;BME280;43627;42.728;23.256;2023-01-25T06:43:44;96050.00;;;-0.32;100.00
57801;BME280;43627;42.728;23.256;2023-01-25T06:46:12;96057.75;;;-0.23;100.00
57801;BME280;43627;42.728;23.256;2023-01-25T06:48:39;96073.44;;;-0.25;100.00
57801;BME280;43627;42.728;23.256;2023-01-25T06:51:10;96061.19;;;-0.22;100.00
57801;BME280;43627;42.728;23.256;2023-01-25T06:53:39;96057.50;;;-0.11;100.00
57801;BME280;43627;42.728;23.256;2023-01-25T06:56:20;96025.22;;;-0.55;100.00
57801;BME280;43627;42.728;23.256;2023-01-25T06:58:48;96070.47;;;-0.16;100.00
57801;BME280;43627;42.728;23.256;2023-01-25T07:01:22;96065.13;;;-0.16;100.00
57801;BME280;43627;42.728;23.256;2023-01-25T07:03:57;95989.03;;;-0.72;100.00
57801;BME280;43627;42.728;23.256;2023-01-25T07:06:33;96058.16;;;-0.21;100.00
57801;BME280;43627;42.728;23.256;2023-01-25T07:09:16;95950.06;;;-0.96;100.00
57801;BME280;43627;42.728;23.256;2023-01-25T07:11:50;96018.03;;;-0.47;100.00
57801;BME280;43627;42.728;23.256;2023-01-25T07:14:37;96050.47;;;-0.22;100.00
57801;BME280;43627;42.728;23.256;2023-01-25T07:17:04;95959.25;;;-0.67;100.00
57801;BME280;43627;42.728;23.256;2023-01-25T07:19:31;96000.31;;;-0.25;100.00
57801;BME280;43627;42.728;23.256;2023-01-25T07:22:00;96084.53;;;0.07;100.00
57801;BME280;43627;42.728;23.256;2023-01-25T07:24:27;96009.53;;;-0.19;100.00
57801;BME280;43627;42.728;23.256;2023-01-25T07:26:55;96073.09;;;0.14;100.00
57801;BME280;43627;42.728;23.256;2023-01-25T07:29:22;96042.19;;;-0.10;100.00
57801;BME280;43627;42.728;23.256;2023-01-25T07:31:48;95998.34;;;-0.29;100.00
57801;BME280;43627;42.728;23.256;2023-01-25T07:34:15;96090.09;;;0.25;100.00
57801;BME280;43627;42.728;23.256;2023-01-25T07:36:47;95984.75;;;-0.46;100.00
57801;BME280;43627;42.728;23.256;2023-01-25T07:39:13;96061.16;;;0.08;100.00
57801;BME280;43627;42.728;23.256;2023-01-25T07:41:40;96078.97;;;0.26;100.00
57801;BME280;43627;42.728;23.256;2023-01-25T07:44:09;96058.66;;;0.25;100.00
57801;BME280;43627;42.728;23.256;2023-01-25T07:46:36;96033.56;;;0.07;100.00
57801;BME280;43627;42.728;23.256;2023-01-25T07:49:03;96068.78;;;0.39;100.00
57801;BME280;43627;42.728;23.256;2023-01-25T07:51:30;96092.94;;;0.43;100.00
57801;BME280;43627;42.728;23.256;2023-01-25T07:54:01;96058.28;;;0.27;100.00
57801;BME280;43627;42.728;23.256;2023-01-25T07:56:30;96079.25;;;0.55;100.00
57801;BME280;43627;42.728;23.256;2023-01-25T07:58:59;96084.13;;;0.42;100.00
57801;BME280;43627;42.728;23.256;2023-01-25T08:01:28;96077.25;;;0.45;100.00
57801;BME280;43627;42.728;23.256;2023-01-25T08:03:58;96074.16;;;0.39;100.00
57801;BME280;43627;42.728;23.256;2023-01-25T08:06:27;96063.84;;;0.45;100.00
57801;BME280;43627;42.728;23.256;2023-01-25T08:08:57;96038.66;;;0.16;100.00
57801;BME280;43627;42.728;23.256;2023-01-25T08:11:28;96008.97;;;-0.02;100.00
57801;BME280;43627;42.728;23.256;2023-01-25T08:14:01;96017.84;;;0.06;100.00
57801;BME280;43627;42.728;23.256;2023-01-25T08:16:30;96028.22;;;0.07;100.00
57801;BME280;43627;42.728;23.256;2023-01-25T08:18:59;96059.22;;;0.42;100.00
57801;BME280;43627;42.728;23.256;2023-01-25T08:21:27;96076.53;;;0.48;100.00
57801;BME280;43627;42.728;23.256;2023-01-25T08:23:58;96064.59;;;0.42;100.00
57801;BME280;43627;42.728;23.256;2023-01-25T08:26:26;96067.34;;;0.49;100.00
57801;BME280;43627;42.728;23.256;2023-01-25T08:28:53;96074.28;;;0.53;100.00
57801;BME280;43627;42.728;23.256;2023-01-25T08:31:23;96081.44;;;0.42;100.00
57801;BME280;43627;42.728;23.256;2023-01-25T08:33:50;96064.03;;;0.25;100.00
57801;BME280;43627;42.728;23.256;2023-01-25T08:36:18;96070.63;;;0.32;100.00
57801;BME280;43627;42.728;23.256;2023-01-25T08:38:46;96039.00;;;0.11;100.00
57801;BME280;43627;42.728;23.256;2023-01-25T08:41:16;96079.91;;;0.41;100.00
57801;BME280;43627;42.728;23.256;2023-01-25T08:43:44;96052.59;;;0.28;100.00
57801;BME280;43627;42.728;23.256;2023-01-25T08:46:13;96041.53;;;0.37;100.00
57801;BME280;43627;42.728;23.256;2023-01-25T08:48:40;96057.41;;;0.56;100.00
57801;BME280;43627;42.728;23.256;2023-01-25T08:51:09;96075.91;;;0.65;100.00
57801;BME280;43627;42.728;23.256;2023-01-25T08:53:37;96080.84;;;0.60;100.00
57801;BME280;43627;42.728;23.256;2023-01-25T08:56:05;96043.78;;;0.32;100.00
57801;BME280;43627;42.728;23.256;2023-01-25T08:58:33;95996.69;;;-0.03;100.00
57801;BME280;43627;42.728;23.256;2023-01-25T09:01:07;96063.44;;;0.43;100.00
57801;BME280;43627;42.728;23.256;2023-01-25T09:03:39;96044.22;;;0.37;100.00
57801;BME280;43627;42.728;23.256;2023-01-25T09:06:07;96053.84;;;0.42;100.00
57801;BME280;43627;42.728;23.256;2023-01-25T09:08:34;96039.50;;;0.23;100.00
57801;BME280;43627;42.728;23.256;2023-01-25T09:11:09;96060.44;;;0.48;100.00
57801;BME280;43627;42.728;23.256;2023-01-25T09:13:37;96055.72;;;0.38;100.00
57801;BME280;43627;42.728;23.256;2023-01-25T09:16:08;96072.63;;;0.42;100.00
57801;BME280;43627;42.728;23.256;2023-01-25T09:18:37;96062.28;;;0.44;100.00
57801;BME280;43627;42.728;23.256;2023-01-25T09:21:10;96063.72;;;0.34;100.00
57801;BME280;43627;42.728;23.256;2023-01-25T09:23:37;96067.16;;;0.31;100.00
57801;BME280;43627;42.728;23.256;2023-01-25T09:26:23;96044.22;;;0.37;100.00
57801;BME280;43627;42.728;23.256;2023-01-25T09:28:51;96043.19;;;0.49;100.00
57801;BME280;43627;42.728;23.256;2023-01-25T09:31:19;96023.25;;;0.50;100.00
57801;BME280;43627;42.728;23.256;2023-01-25T09:33:50;96034.09;;;0.61;100.00
57801;BME280;43627;42.728;23.256;2023-01-25T09:36:18;96030.59;;;0.56;100.00
57801;BME280;43627;42.728;23.256;2023-01-25T09:38:44;96034.88;;;0.65;100.00
57801;BME280;43627;42.728;23.256;2023-01-25T09:46:48;96006.34;;;0.46;100.00
57801;BME280;43627;42.728;23.256;2023-01-25T09:52:27;95998.66;;;0.44;100.00
57801;BME280;43627;42.728;23.256;2023-01-25T09:54:58;96005.94;;;0.40;100.00
57801;BME280;43627;42.728;23.256;2023-01-25T09:57:34;96004.50;;;0.53;100.00
57801;BME280;43627;42.728;23.256;2023-01-25T10:00:16;95982.63;;;0.48;100.00
57801;BME280;43627;42.728;23.256;2023-01-25T10:05:33;95996.59;;;0.75;100.00
57801;BME280;43627;42.728;23.256;2023-01-25T10:08:07;95938.88;;;0.44;100.00
57801;BME280;43627;42.728;23.256;2023-01-25T10:10:39;95962.78;;;0.63;100.00
57801;BME280;43627;42.728;23.256;2023-01-25T10:13:12;95962.41;;;0.65;100.00
57801;BME280;43627;42.728;23.256;2023-01-25T10:15:43;95964.44;;;0.78;100.00
57801;BME280;43627;42.728;23.256;2023-01-25T10:18:25;95975.63;;;0.88;100.00
57801;BME280;43627;42.728;23.256;2023-01-25T10:20:58;95956.06;;;0.87;100.00
57801;BME280;43627;42.728;23.256;2023-01-25T10:26:27;95968.84;;;1.11;100.00
57801;BME280;43627;42.728;23.256;2023-01-25T10:29:06;95950.47;;;1.21;100.00
57801;BME280;43627;42.728;23.256;2023-01-25T10:34:20;95946.94;;;1.06;100.00
57801;BME280;43627;42.728;23.256;2023-01-25T10:36:52;95926.63;;;1.08;100.00
57801;BME280;43627;42.728;23.256;2023-01-25T10:39:20;95888.06;;;0.72;100.00
57801;BME280;43627;42.728;23.256;2023-01-25T10:41:50;95940.44;;;1.10;100.00
57801;BME280;43627;42.728;23.256;2023-01-25T10:44:19;95934.69;;;1.12;100.00
57801;BME280;43627;42.728;23.256;2023-01-25T10:49:50;95927.09;;;1.25;100.00
57801;BME280;43627;42.728;23.256;2023-01-25T10:52:25;95920.59;;;1.36;100.00
57801;BME280;43627;42.728;23.256;2023-01-25T10:55:06;95921.38;;;1.40;100.00
57801;BME280;43627;42.728;23.256;2023-01-25T10:57:34;95939.50;;;1.61;100.00
57801;BME280;43627;42.728;23.256;2023-01-25T11:00:05;95919.50;;;1.52;100.00
57801;BME280;43627;42.728;23.256;2023-01-25T11:02:43;95872.63;;;1.49;100.00
57801;BME280;43627;42.728;23.256;2023-01-25T11:07:47;95860.75;;;1.43;100.00
57801;BME280;43627;42.728;23.256;2023-01-25T11:15:43;95893.06;;;1.96;100.00
57801;BME280;43627;42.728;23.256;2023-01-25T11:18:23;95901.53;;;2.06;100.00
57801;BME280;43627;42.728;23.256;2023-01-25T11:21:11;95863.47;;;1.89;100.00
57801;BME280;43627;42.728;23.256;2023-01-25T11:23:40;95880.41;;;2.22;100.00
57801;BME280;43627;42.728;23.256;2023-01-25T11:26:11;95883.50;;;2.27;100.00
57801;BME280;43627;42.728;23.256;2023-01-25T11:28:38;95894.25;;;2.13;100.00
57801;BME280;43627;42.728;23.256;2023-01-25T11:31:13;95891.16;;;2.04;100.00
57801;BME280;43627;42.728;23.256;2023-01-25T11:33:40;95883.84;;;1.97;100.00
57801;BME280;43627;42.728;23.256;2023-01-25T11:41:41;95869.25;;;1.84;100.00
57801;BME280;43627;42.728;23.256;2023-01-25T11:50:46;95846.19;;;1.80;100.00
57801;BME280;43627;42.728;23.256;2023-01-25T12:06:44;95811.63;;;1.71;100.00
57801;BME280;43627;42.728;23.256;2023-01-25T12:09:25;95835.06;;;1.81;100.00
57801;BME280;43627;42.728;23.256;2023-01-25T12:17:24;95812.38;;;1.64;100.00
57801;BME280;43627;42.728;23.256;2023-01-25T12:20:03;95826.22;;;1.84;100.00
57801;BME280;43627;42.728;23.256;2023-01-25T12:28:09;95814.69;;;1.69;100.00
57801;BME280;43627;42.728;23.256;2023-01-25T12:33:19;95817.00;;;1.82;100.00
57801;BME280;43627;42.728;23.256;2023-01-25T12:35:57;95813.94;;;1.90;100.00
57801;BME280;43627;42.728;23.256;2023-01-25T12:41:25;95798.56;;;1.66;100.00
57801;BME280;43627;42.728;23.256;2023-01-25T12:46:50;95803.53;;;1.57;100.00
57801;BME280;43627;42.728;23.256;2023-01-25T12:49:33;95781.66;;;1.44;100.00
57801;BME280;43627;42.728;23.256;2023-01-25T12:52:19;95785.47;;;1.50;100.00
57801;BME280;43627;42.728;23.256;2023-01-25T12:54:48;95776.28;;;1.55;100.00
57801;BME280;43627;42.728;23.256;2023-01-25T12:57:32;95792.41;;;1.58;100.00
57801;BME280;43627;42.728;23.256;2023-01-25T13:05:37;95784.34;;;1.69;100.00
57801;BME280;43627;42.728;23.256;2023-01-25T13:11:16;95759.38;;;1.43;100.00
57801;BME280;43627;42.728;23.256;2023-01-25T13:13:44;95772.06;;;1.68;100.00
57801;BME280;43627;42.728;23.256;2023-01-25T13:16:33;95766.28;;;1.59;100.00
57801;BME280;43627;42.728;23.256;2023-01-25T13:19:02;95753.63;;;1.45;100.00
57801;BME280;43627;42.728;23.256;2023-01-25T13:21:44;95774.75;;;1.54;100.00
57801;BME280;43627;42.728;23.256;2023-01-25T13:24:21;95777.06;;;1.66;100.00
57801;BME280;43627;42.728;23.256;2023-01-25T13:32:02;95770.16;;;1.90;100.00
57801;BME280;43627;42.728;23.256;2023-01-25T13:37:20;95775.13;;;1.91;100.00
57801;BME280;43627;42.728;23.256;2023-01-25T13:39:52;95771.69;;;1.80;100.00
57801;BME280;43627;42.728;23.256;2023-01-25T13:44:56;95770.91;;;1.83;100.00
57801;BME280;43627;42.728;23.256;2023-01-25T13:47:28;95778.59;;;1.74;100.00
57801;BME280;43627;42.728;23.256;2023-01-25T13:55:24;95777.06;;;1.52;100.00
57801;BME280;43627;42.728;23.256;2023-01-25T13:57:51;95782.81;;;1.43;100.00
57801;BME280;43627;42.728;23.256;2023-01-25T14:00:20;95758.19;;;1.20;100.00
57801;BME280;43627;42.728;23.256;2023-01-25T14:02:53;95786.63;;;1.35;100.00
57801;BME280;43627;42.728;23.256;2023-01-25T14:05:22;95787.03;;;1.33;100.00
57801;BME280;43627;42.728;23.256;2023-01-25T14:07:52;95782.03;;;1.50;100.00
57801;BME280;43627;42.728;23.256;2023-01-25T14:10:24;95773.97;;;1.39;100.00
57801;BME280;43627;42.728;23.256;2023-01-25T14:12:58;95772.81;;;1.26;100.00
57801;BME280;43627;42.728;23.256;2023-01-25T14:15:26;95790.47;;;1.34;100.00
57801;BME280;43627;42.728;23.256;2023-01-25T14:18:32;95752.44;;;1.10;100.00
57801;BME280;43627;42.728;23.256;2023-01-25T14:21:18;95767.38;;;1.11;100.00
57801;BME280;43627;42.728;23.256;2023-01-25T14:23:46;95779.66;;;1.12;100.00
57801;BME280;43627;42.728;23.256;2023-01-25T14:26:23;95780.84;;;1.19;100.00
57801;BME280;43627;42.728;23.256;2023-01-25T14:28:52;95769.34;;;1.29;100.00
57801;BME280;43627;42.728;23.256;2023-01-25T14:31:32;95773.56;;;1.30;100.00
57801;BME280;43627;42.728;23.256;2023-01-25T14:33:59;95772.75;;;1.11;100.00
57801;BME280;43627;42.728;23.256;2023-01-25T14:36:31;95761.59;;;1.02;100.00
57801;BME280;43627;42.728;23.256;2023-01-25T14:39:00;95748.88;;;0.74;100.00
57801;BME280;43627;42.728;23.256;2023-01-25T14:41:35;95745.41;;;0.70;100.00